Time;durP1;ratioP1;P1;durP2;ratioP2;P2;SDS_P1;SDS_P2;PMS_P1;PMS_P2;Temp;Humidity;BMP_temperature;BMP_pressure;BME280_temperature;BME280_humidity;BME280_pressure;Samples;Min_cycle;Max_cycle;Signal;HPM_P1;HPM_P2
2022/01/28 00:07:22;;;;;;;;;;;;;;;21.74;28.09;96465.66;10456050;28;1931;-57
2022/01/28 00:12:24;;;;;;;;;;;;;;;21.74;28.12;96470.94;10464390;28;1805;-56
2022/01/28 00:38:31;;;;;;;;;;;;;;;21.73;27.71;96495.72;10459696;28;1828;-53
2022/01/28 00:43:32;;;;;;;;;;;;;;;21.74;27.59;96492.03;10463932;28;1799;-56
2022/01/28 00:48:32;;;;;;;;;;;;;;;21.72;27.50;96494.16;10462139;28;1987;-54
2022/01/28 00:53:33;;;;;;;;;;;;;;;21.73;27.32;96501.00;10455127;28;1833;-55
2022/01/28 00:58:34;;;;;;;;;;;;;;;21.75;27.64;96501.53;10461054;28;1840;-53
2022/01/28 01:03:34;;;;;;;;;;;;;;;21.77;27.54;96508.13;10456236;28;1820;-52
2022/01/28 01:08:36;;;;;;;;;;;;;;;21.73;27.48;96514.19;10451083;28;1995;-59
2022/01/28 01:13:39;;;;;;;;;;;;;;;21.72;27.26;96525.81;10461410;28;1790;-57
2022/01/28 01:18:50;;;;;;;;;;;;;;;21.75;27.28;96534.00;10455167;28;1784;-55
2022/01/28 01:23:54;;;;;;;;;;;;;;;21.73;27.13;96544.03;10463125;28;1790;-55
2022/01/28 01:28:54;;;;;;;;;;;;;;;21.75;27.31;96541.91;10446963;28;1910;-56
2022/01/28 01:34:10;;;;;;;;;;;;;;;21.75;27.38;96546.38;10471387;28;1935;-57
2022/01/28 01:39:11;;;;;;;;;;;;;;;21.73;26.77;96533.47;10469184;28;1781;-56
2022/01/28 01:44:27;;;;;;;;;;;;;;;21.75;27.13;96535.84;10460739;28;1933;-57
2022/01/28 01:54:47;;;;;;;;;;;;;;;21.75;27.27;96551.66;10458134;28;2343;-56
2022/01/28 01:59:48;;;;;;;;;;;;;;;21.76;27.27;96561.19;10460747;28;2002;-61
2022/01/28 02:04:48;;;;;;;;;;;;;;;21.75;27.21;96575.41;10467522;28;1971;-57
2022/01/28 02:09:48;;;;;;;;;;;;;;;21.75;26.93;96580.69;10472379;28;1918;-55
2022/01/28 02:14:49;;;;;;;;;;;;;;;21.77;27.24;96573.31;10463309;28;2048;-53
2022/01/28 02:19:49;;;;;;;;;;;;;;;21.75;27.05;96578.06;10450255;28;1879;-55
2022/01/28 02:24:50;;;;;;;;;;;;;;;21.73;27.39;96588.88;10465483;28;2142;-60
2022/01/28 02:29:51;;;;;;;;;;;;;;;21.70;26.06;96588.63;10468886;28;2127;-56
2022/01/28 02:34:51;;;;;;;;;;;;;;;21.76;26.98;96595.50;10461345;28;1990;-58
2022/01/28 02:39:52;;;;;;;;;;;;;;;21.78;27.16;96601.31;10459414;28;1985;-57
2022/01/28 02:44:55;;;;;;;;;;;;;;;21.76;27.12;96595.50;10464956;28;1888;-57
2022/01/28 02:49:56;;;;;;;;;;;;;;;21.77;27.01;96615.53;10460978;28;2189;-57
2022/01/28 02:54:56;;;;;;;;;;;;;;;21.73;26.80;96610.00;10462049;28;1910;-54
2022/01/28 02:59:57;;;;;;;;;;;;;;;21.73;27.24;96607.34;10459312;28;1927;-54
2022/01/28 03:15:28;;;;;;;;;;;;;;;21.74;26.76;96624.75;10456409;28;2036;-59
2022/01/28 03:20:37;;;;;;;;;;;;;;;21.75;27.39;96617.63;10466828;28;1907;-59
2022/01/28 03:25:42;;;;;;;;;;;;;;;21.74;27.07;96629.28;10461027;28;1911;-58
2022/01/28 03:30:43;;;;;;;;;;;;;;;21.75;26.85;96620.28;10466069;28;1981;-58
2022/01/28 03:35:43;;;;;;;;;;;;;;;21.73;26.97;96638.22;10462151;28;1946;-56
2022/01/28 03:40:44;;;;;;;;;;;;;;;21.74;26.92;96647.75;10458167;28;2014;-55
2022/01/28 03:45:44;;;;;;;;;;;;;;;21.75;27.28;96659.88;10462168;28;1998;-58
2022/01/28 03:50:44;;;;;;;;;;;;;;;21.75;26.98;96663.31;10456318;28;2034;-58
2022/01/28 03:55:46;;;;;;;;;;;;;;;21.74;27.20;96664.34;10465677;28;1982;-57
2022/01/28 04:00:46;;;;;;;;;;;;;;;21.73;27.01;96651.41;10461730;28;1943;-58
2022/01/28 04:21:23;;;;;;;;;;;;;;;21.72;27.16;96673.59;10463287;28;1967;-56
2022/01/28 04:26:23;;;;;;;;;;;;;;;21.70;26.57;96687.03;10454976;28;2223;-57
2022/01/28 04:31:24;;;;;;;;;;;;;;;21.74;26.96;96692.59;10454932;28;2084;-58
2022/01/28 04:36:27;;;;;;;;;;;;;;;21.73;27.06;96694.44;10461590;28;1931;-58
2022/01/28 04:41:39;;;;;;;;;;;;;;;21.72;26.84;96710.53;10457632;28;2434;-54
2022/01/28 04:46:49;;;;;;;;;;;;;;;21.71;26.80;96709.75;10460379;28;1970;-58
2022/01/28 05:23:42;;;;;;;;;;;;;;;21.71;26.78;96696.53;10463376;28;1843;-59
2022/01/28 05:28:45;;;;;;;;;;;;;;;21.69;26.34;96687.28;10461519;28;1922;-59
2022/01/28 05:33:46;;;;;;;;;;;;;;;21.69;26.62;96697.84;10461390;28;1774;-58
2022/01/28 05:38:46;;;;;;;;;;;;;;;21.69;26.89;96716.31;10462068;28;1808;-58
2022/01/28 05:43:46;;;;;;;;;;;;;;;21.68;26.95;96723.44;10461381;28;1795;-59
2022/01/28 05:48:47;;;;;;;;;;;;;;;21.70;26.81;96728.47;10464906;28;2000;-58
2022/01/28 05:53:47;;;;;;;;;;;;;;;21.69;26.78;96745.34;10463008;28;1858;-58
2022/01/28 05:58:48;;;;;;;;;;;;;;;21.68;26.61;96741.09;10464584;28;1843;-55
2022/01/28 06:03:48;;;;;;;;;;;;;;;21.65;26.68;96737.16;10454742;28;1847;-59
2022/01/28 06:08:49;;;;;;;;;;;;;;;21.66;27.04;96764.31;10462839;28;2044;-55
2022/01/28 06:13:50;;;;;;;;;;;;;;;21.68;27.04;96778.03;10463972;28;1895;-57
2022/01/28 06:18:50;;;;;;;;;;;;;;;21.66;26.79;96791.50;10461776;28;2066;-57
2022/01/28 06:23:52;;;;;;;;;;;;;;;21.64;26.54;96798.88;10458914;28;1945;-59
2022/01/28 06:28:53;;;;;;;;;;;;;;;21.62;26.19;96797.53;10462147;28;1977;-58
2022/01/28 06:33:54;;;;;;;;;;;;;;;21.67;26.82;96810.78;10462581;28;1911;-57
2022/01/28 06:38:54;;;;;;;;;;;;;;;21.65;26.59;96826.06;10458223;28;1835;-59
2022/01/28 06:43:54;;;;;;;;;;;;;;;21.65;26.90;96823.44;10457784;28;1869;-57
2022/01/28 06:48:55;;;;;;;;;;;;;;;21.66;26.31;96822.38;10463552;28;1910;-58
2022/01/28 06:53:55;;;;;;;;;;;;;;;21.65;26.59;96821.59;10449463;28;1834;-58
2022/01/28 06:58:56;;;;;;;;;;;;;;;21.66;26.26;96827.66;10457391;28;2014;-56
2022/01/28 07:03:56;;;;;;;;;;;;;;;21.66;26.67;96825.00;10452339;28;1846;-56
2022/01/28 07:08:56;;;;;;;;;;;;;;;21.66;26.56;96832.91;10456822;28;1977;-59
2022/01/28 07:13:57;;;;;;;;;;;;;;;21.65;26.65;96837.44;10441776;28;2022;-58
2022/01/28 07:18:57;;;;;;;;;;;;;;;21.64;26.56;96835.03;10460654;28;1822;-56
2022/01/28 07:23:58;;;;;;;;;;;;;;;21.60;26.49;96849.78;10453056;28;1688;-55
2022/01/28 07:28:58;;;;;;;;;;;;;;;21.67;27.34;96863.56;10448919;28;1975;-56
2022/01/28 07:33:58;;;;;;;;;;;;;;;21.68;27.70;96865.13;10452262;28;2017;-58
2022/01/28 07:38:59;;;;;;;;;;;;;;;21.65;26.93;96866.44;10453602;28;1795;-59
2022/01/28 07:43:59;;;;;;;;;;;;;;;21.63;27.47;96859.84;10464076;28;1791;-58
2022/01/28 07:49:00;;;;;;;;;;;;;;;21.65;27.59;96863.00;10461884;28;1910;-59
2022/01/28 07:54:00;;;;;;;;;;;;;;;21.83;27.93;96865.28;10452282;28;1858;-54
2022/01/28 07:59:01;;;;;;;;;;;;;;;21.97;27.87;96876.19;10459109;28;1819;-58
2022/01/28 08:04:01;;;;;;;;;;;;;;;22.06;26.51;96875.44;10449171;28;1815;-54
2022/01/28 08:09:03;;;;;;;;;;;;;;;22.13;26.23;96885.78;10436693;28;1983;-57
2022/01/28 08:14:03;;;;;;;;;;;;;;;22.21;26.25;96887.94;10455336;28;1991;-55
2022/01/28 08:19:03;;;;;;;;;;;;;;;22.24;25.65;96888.22;10449549;28;2101;-55
2022/01/28 08:24:04;;;;;;;;;;;;;;;22.35;25.24;96904.91;10439955;28;3800;-57
2022/01/28 08:29:06;;;;;;;;;;;;;;;22.43;25.42;96904.41;10441237;28;3375;-57
2022/01/28 08:34:06;;;;;;;;;;;;;;;22.36;24.50;96902.00;10451287;28;3018;-58
2022/01/28 08:39:09;;;;;;;;;;;;;;;22.39;24.42;96916.56;10458673;28;2150;-56
2022/01/28 08:44:09;;;;;;;;;;;;;;;22.35;25.28;96912.84;10460095;28;3293;-56
2022/01/28 08:49:10;;;;;;;;;;;;;;;22.41;24.92;96912.59;10465979;28;1906;-56
2022/01/28 08:54:10;;;;;;;;;;;;;;;22.43;24.48;96930.84;10460141;28;1807;-57
2022/01/28 08:59:10;;;;;;;;;;;;;;;22.43;24.77;96936.13;10466079;28;3057;-56
2022/01/28 09:04:11;;;;;;;;;;;;;;;22.46;24.18;96938.25;10460691;28;1786;-57
2022/01/28 09:09:11;;;;;;;;;;;;;;;22.48;24.67;96925.59;10468385;28;2055;-55
2022/01/28 09:14:12;;;;;;;;;;;;;;;22.44;24.36;96930.56;10460367;28;2009;-58
2022/01/28 09:19:13;;;;;;;;;;;;;;;22.54;24.66;96929.84;10470525;28;1835;-54
2022/01/28 09:24:13;;;;;;;;;;;;;;;22.53;24.51;96931.69;10465469;28;1765;-58
2022/01/28 09:29:15;;;;;;;;;;;;;;;22.50;24.38;96939.34;10473116;28;1977;-56
2022/01/28 09:34:15;;;;;;;;;;;;;;;22.47;24.62;96930.06;10461802;28;1752;-58
2022/01/28 09:39:16;;;;;;;;;;;;;;;22.50;24.72;96950.69;10459928;28;1873;-56
2022/01/28 09:44:17;;;;;;;;;;;;;;;22.44;24.42;96946.44;10461173;28;1802;-56
2022/01/28 09:49:18;;;;;;;;;;;;;;;22.47;24.74;96953.84;10460589;28;1977;-55
2022/01/28 09:54:19;;;;;;;;;;;;;;;22.45;24.24;96961.25;10463974;28;1887;-58
2022/01/28 09:59:19;;;;;;;;;;;;;;;22.45;23.97;96963.09;10454532;28;2374;-57
2022/01/28 10:04:20;;;;;;;;;;;;;;;22.47;24.92;96961.78;10456291;28;1838;-57
2022/01/28 10:09:23;;;;;;;;;;;;;;;22.50;24.79;96963.91;10459368;28;1989;-60
2022/01/28 10:14:26;;;;;;;;;;;;;;;22.45;24.42;96958.59;10449047;28;1799;-58
2022/01/28 10:19:27;;;;;;;;;;;;;;;22.43;24.48;96962.53;10441996;28;1787;-59
2022/01/28 10:24:28;;;;;;;;;;;;;;;22.33;24.08;96952.72;10435316;28;3334;-57
2022/01/28 10:29:33;;;;;;;;;;;;;;;22.40;24.22;96965.72;10451948;28;2218;-58
2022/01/28 10:34:34;;;;;;;;;;;;;;;22.40;24.33;96965.72;10460876;28;1825;-59
2022/01/28 10:39:58;;;;;;;;;;;;;;;22.38;24.27;96967.81;10456982;28;2167;-60
2022/01/28 10:44:59;;;;;;;;;;;;;;;22.37;24.11;96964.38;10452034;28;1952;-59
2022/01/28 10:50:00;;;;;;;;;;;;;;;22.36;24.01;96952.19;10453958;28;2050;-57
2022/01/28 10:55:01;;;;;;;;;;;;;;;22.33;24.47;96952.72;10452701;28;2446;-57
2022/01/28 11:00:02;;;;;;;;;;;;;;;22.28;25.83;96963.25;10452856;28;1897;-59
2022/01/28 11:05:02;;;;;;;;;;;;;;;22.21;26.21;96960.06;10449825;28;2018;-59
2022/01/28 11:10:03;;;;;;;;;;;;;;;22.12;26.21;96971.31;10459046;28;1910;-58
2022/01/28 11:15:03;;;;;;;;;;;;;;;22.08;26.83;96957.84;10455643;28;1971;-56
2022/01/28 11:20:05;;;;;;;;;;;;;;;22.02;27.18;96952.78;10446957;28;1975;-58
2022/01/28 11:25:11;;;;;;;;;;;;;;;21.96;27.11;96967.00;10455483;28;1876;-58
2022/01/28 11:30:18;;;;;;;;;;;;;;;21.95;26.73;96960.13;10441251;28;1902;-59
2022/01/28 11:35:19;;;;;;;;;;;;;;;21.88;27.29;96956.91;10452519;28;1803;-60
2022/01/28 11:40:19;;;;;;;;;;;;;;;21.86;28.27;96970.34;10448020;28;1862;-60
2022/01/28 11:45:19;;;;;;;;;;;;;;;21.88;28.12;96962.19;10451134;28;1801;-57
2022/01/28 11:50:21;;;;;;;;;;;;;;;21.88;28.25;96959.53;10446830;28;1973;-57
2022/01/28 11:55:24;;;;;;;;;;;;;;;21.84;28.94;96956.63;10438669;28;2321;-57
2022/01/28 12:00:25;;;;;;;;;;;;;;;21.86;28.31;96959.81;10435488;28;1906;-58
2022/01/28 12:05:26;;;;;;;;;;;;;;;21.82;28.20;96958.72;10453794;28;1727;-57
2022/01/28 12:10:27;;;;;;;;;;;;;;;21.83;28.02;96960.28;10449970;28;1967;-55
2022/01/28 12:15:29;;;;;;;;;;;;;;;21.80;28.41;96961.56;10444653;28;1878;-56
2022/01/28 12:20:37;;;;;;;;;;;;;;;21.79;27.90;96949.41;10453984;28;1999;-55
2022/01/28 12:25:40;;;;;;;;;;;;;;;21.77;27.88;96934.88;10448376;28;2287;-57
2022/01/28 12:30:47;;;;;;;;;;;;;;;21.75;27.47;96950.16;10444426;28;1910;-53
2022/01/28 12:35:50;;;;;;;;;;;;;;;21.71;27.57;96968.34;10456138;28;1814;-55
2022/01/28 12:40:53;;;;;;;;;;;;;;;21.75;27.74;96973.91;10453943;28;1861;-53
2022/01/28 12:46:01;;;;;;;;;;;;;;;21.77;28.05;96963.91;10450259;28;1991;-56
2022/01/28 12:51:02;;;;;;;;;;;;;;;21.77;27.95;96974.47;10445572;28;1914;-53
2022/01/28 12:56:04;;;;;;;;;;;;;;;21.78;27.80;96978.72;10453546;28;1882;-56
2022/01/28 13:01:05;;;;;;;;;;;;;;;21.76;27.81;96983.44;10443832;28;1899;-57
2022/01/28 13:06:23;;;;;;;;;;;;;;;21.76;27.83;96972.88;10450823;28;1924;-55
2022/01/28 13:11:24;;;;;;;;;;;;;;;21.76;27.80;96967.59;10452097;28;1905;-56
2022/01/28 13:16:31;;;;;;;;;;;;;;;21.74;27.31;96961.78;10460013;28;1835;-56
2022/01/28 13:21:32;;;;;;;;;;;;;;;21.75;28.21;96979.19;10455640;28;1879;-55
2022/01/28 13:26:32;;;;;;;;;;;;;;;21.77;27.98;96966.56;10460011;28;1783;-56
2022/01/28 13:31:33;;;;;;;;;;;;;;;21.77;27.92;96964.72;10454990;28;1963;-56
2022/01/28 13:36:43;;;;;;;;;;;;;;;21.78;27.99;96968.94;10459464;28;1725;-55
2022/01/28 13:41:46;;;;;;;;;;;;;;;21.76;27.44;96965.75;10458498;28;1785;-55
2022/01/28 13:46:59;;;;;;;;;;;;;;;21.77;28.32;96971.81;10453006;28;1874;-56
2022/01/28 13:52:13;;;;;;;;;;;;;;;21.76;28.20;96963.09;10451344;28;2005;-55
2022/01/28 13:57:13;;;;;;;;;;;;;;;21.64;27.60;96965.13;10446134;28;1917;-52
2022/01/28 14:02:15;;;;;;;;;;;;;;;21.72;27.95;96969.16;10459853;28;1832;-56
2022/01/28 14:07:19;;;;;;;;;;;;;;;21.76;27.67;96965.75;10453964;28;2126;-55
2022/01/28 14:12:23;;;;;;;;;;;;;;;21.74;27.67;96970.47;10452486;28;1800;-54
2022/01/28 14:17:24;;;;;;;;;;;;;;;21.73;27.43;96965.47;10461192;28;1869;-56
2022/01/28 14:22:24;;;;;;;;;;;;;;;21.74;27.57;96961.78;10461374;28;1835;-56
2022/01/28 14:27:58;;;;;;;;;;;;;;;21.77;27.73;96982.38;10461967;28;1930;-57
2022/01/28 14:32:45;;;;;;;;;;;;;;;21.76;27.80;96980.81;10457436;28;1874;-58
2022/01/28 14:37:46;;;;;;;;;;;;;;;21.77;27.75;96998.22;10458438;28;1815;-56
2022/01/28 14:42:46;;;;;;;;;;;;;;;21.75;27.42;97000.31;10452973;28;1891;-55
2022/01/28 14:47:46;;;;;;;;;;;;;;;21.76;27.90;97004.56;10464861;28;1988;-54
2022/01/28 14:52:48;;;;;;;;;;;;;;;21.75;27.84;97011.69;10449814;28;1950;-56
2022/01/28 14:57:49;;;;;;;;;;;;;;;21.76;28.07;97013.25;10465572;28;1836;-54
2022/01/28 15:02:49;;;;;;;;;;;;;;;21.75;28.21;97048.63;10464122;28;1833;-53
2022/01/28 15:07:49;;;;;;;;;;;;;;;21.69;28.42;97046.19;10454648;28;1977;-55
2022/01/28 15:12:50;;;;;;;;;;;;;;;21.75;28.39;97039.91;10461626;28;1900;-55
2022/01/28 15:17:50;;;;;;;;;;;;;;;21.73;28.21;97053.34;10462377;28;1793;-57
2022/01/28 15:22:51;;;;;;;;;;;;;;;21.72;28.12;97053.63;10461812;28;1809;-57
2022/01/28 15:27:52;;;;;;;;;;;;;;;21.74;28.04;97062.84;10454769;28;1948;-55
2022/01/28 15:38:12;;;;;;;;;;;;;;;21.67;27.62;97056.19;10454482;28;1864;-54
2022/01/28 15:43:13;;;;;;;;;;;;;;;21.68;27.71;97073.59;10456014;28;1873;-56
2022/01/28 15:48:13;;;;;;;;;;;;;;;21.70;28.06;97071.53;10459614;28;1988;-59
2022/01/28 15:53:14;;;;;;;;;;;;;;;21.70;28.42;97082.09;10455476;28;1803;-57
2022/01/28 15:58:16;;;;;;;;;;;;;;;21.69;28.17;97080.50;10465359;28;1809;-56
2022/01/28 16:03:17;;;;;;;;;;;;;;;21.70;28.27;97093.44;10451677;28;1805;-57
2022/01/28 16:08:18;;;;;;;;;;;;;;;21.70;28.34;97106.63;10452749;28;1971;-58
2022/01/28 16:13:40;;;;;;;;;;;;;;;21.71;28.29;97116.16;10456684;28;1825;-59
2022/01/28 16:18:40;;;;;;;;;;;;;;;21.73;28.60;97127.25;10452363;28;1824;-58
2022/01/28 16:23:41;;;;;;;;;;;;;;;21.74;28.53;97128.06;10453934;28;1821;-57
2022/01/28 16:28:41;;;;;;;;;;;;;;;21.73;28.53;97129.91;10456995;28;1968;-59
2022/01/28 16:33:41;;;;;;;;;;;;;;;21.70;28.37;97117.19;10454457;28;1801;-55
2022/01/28 16:38:42;;;;;;;;;;;;;;;21.73;28.55;97118.53;10455299;28;2167;-58
2022/01/28 16:43:57;;;;;;;;;;;;;;;21.70;28.58;97122.47;10463506;28;1863;-55
2022/01/28 16:48:58;;;;;;;;;;;;;;;21.68;28.54;97129.81;10460855;28;1915;-58
2022/01/28 16:53:59;;;;;;;;;;;;;;;21.66;28.73;97116.06;10462913;28;1842;-55
2022/01/28 16:59:00;;;;;;;;;;;;;;;21.66;28.79;97134.56;10467140;28;1891;-56
2022/01/28 17:04:00;;;;;;;;;;;;;;;21.68;28.47;97137.75;10461095;28;1831;-59
2022/01/28 17:09:01;;;;;;;;;;;;;;;21.62;28.45;97140.56;10466361;28;1910;-59
2022/01/28 17:14:01;;;;;;;;;;;;;;;21.62;28.54;97145.84;10464582;28;1826;-58
2022/01/28 17:19:03;;;;;;;;;;;;;;;21.65;28.25;97150.66;10463683;28;1770;-58
2022/01/28 17:24:03;;;;;;;;;;;;;;;21.60;28.45;97155.84;10460940;28;1841;-57
2022/01/28 17:29:04;;;;;;;;;;;;;;;21.58;28.78;97164.00;10464768;28;1979;-56
2022/01/28 17:34:04;;;;;;;;;;;;;;;21.59;28.55;97165.63;10449643;28;1822;-56
2022/01/28 17:39:09;;;;;;;;;;;;;;;21.58;28.47;97173.75;10466295;28;1813;-57
2022/01/28 17:44:10;;;;;;;;;;;;;;;21.57;28.67;97169.53;10470034;28;1743;-59
2022/01/28 17:49:10;;;;;;;;;;;;;;;21.58;28.74;97171.94;10450837;28;1911;-59
2022/01/28 17:54:10;;;;;;;;;;;;;;;21.58;28.41;97176.41;10446787;28;1998;-60
2022/01/28 17:59:11;;;;;;;;;;;;;;;21.57;28.54;97182.75;10448440;28;1852;-57
2022/01/28 18:04:11;;;;;;;;;;;;;;;21.57;29.08;97188.81;10449311;28;1829;-56
2022/01/28 18:09:11;;;;;;;;;;;;;;;21.60;29.18;97190.16;10446349;28;2176;-58
2022/01/28 18:14:12;;;;;;;;;;;;;;;21.63;29.88;97182.56;10452018;28;2150;-58
2022/01/28 18:19:12;;;;;;;;;;;;;;;21.64;30.04;97188.63;10450752;28;1910;-55
2022/01/28 18:24:13;;;;;;;;;;;;;;;21.69;30.76;97193.97;10456527;28;1922;-57
2022/01/28 18:29:13;;;;;;;;;;;;;;;21.69;29.95;97196.59;10459429;28;2007;-57
2022/01/28 18:34:14;;;;;;;;;;;;;;;21.69;30.88;97191.34;10453519;28;1826;-58
2022/01/28 18:39:15;;;;;;;;;;;;;;;21.69;30.80;97204.53;10457339;28;1864;-57
2022/01/28 18:44:20;;;;;;;;;;;;;;;21.70;31.02;97208.78;10440120;28;1858;-55
2022/01/28 18:49:21;;;;;;;;;;;;;;;21.69;31.22;97212.44;10457542;28;1976;-55
2022/01/28 18:54:21;;;;;;;;;;;;;;;21.71;31.75;97216.44;10446929;28;1855;-60
2022/01/28 18:59:22;;;;;;;;;;;;;;;21.70;31.66;97220.09;10430961;28;1631;-59
2022/01/28 19:04:24;;;;;;;;;;;;;;;21.75;32.28;97225.47;10444990;28;1822;-53
2022/01/28 19:09:25;;;;;;;;;;;;;;;21.76;32.15;97227.03;10459584;28;1914;-56
2022/01/28 19:14:25;;;;;;;;;;;;;;;21.77;31.97;97225.22;10451704;28;1789;-54
2022/01/28 19:19:26;;;;;;;;;;;;;;;21.80;32.89;97230.00;10451322;28;1856;-55
2022/01/28 19:24:26;;;;;;;;;;;;;;;21.83;32.51;97234.81;10456151;28;1878;-57
2022/01/28 19:29:26;;;;;;;;;;;;;;;21.85;32.85;97245.91;10448180;28;1915;-59
2022/01/28 19:34:27;;;;;;;;;;;;;;;21.79;32.32;97249.50;10443486;28;1878;-60
2022/01/28 19:39:27;;;;;;;;;;;;;;;21.78;33.23;97255.84;10456355;28;1369;-57
2022/01/28 19:44:28;;;;;;;;;;;;;;;21.78;32.89;97263.78;10455667;28;1477;-58
2022/01/28 19:49:29;;;;;;;;;;;;;;;21.71;32.64;97261.31;10461438;28;1977;-58
2022/01/28 19:54:29;;;;;;;;;;;;;;;21.72;32.09;97264.75;10434855;28;1460;-59
2022/01/28 19:59:30;;;;;;;;;;;;;;;21.68;31.45;97260.97;10453511;28;1410;-61
2022/01/28 20:04:30;;;;;;;;;;;;;;;21.66;30.92;97255.16;10445658;28;1766;-62
2022/01/28 20:09:32;;;;;;;;;;;;;;;21.63;31.45;97264.38;10460467;28;1968;-61
2022/01/28 20:14:32;;;;;;;;;;;;;;;21.62;31.10;97259.31;10458929;28;1369;-60
2022/01/28 20:19:33;;;;;;;;;;;;;;;21.61;30.51;97271.72;10465449;28;1434;-61
2022/01/28 20:24:33;;;;;;;;;;;;;;;21.60;30.46;97259.56;10463693;28;1397;-62
2022/01/28 20:29:33;;;;;;;;;;;;;;;21.59;31.31;97267.72;10463638;28;1906;-59
2022/01/28 20:34:35;;;;;;;;;;;;;;;21.62;31.10;97268.03;10468652;28;1407;-58
2022/01/28 20:39:36;;;;;;;;;;;;;;;21.59;30.65;97263.25;10437254;22;1769;-71
2022/01/28 20:44:36;;;;;;;;;;;;;;;21.58;30.51;97258.19;10418923;28;1456;-71
2022/01/28 20:49:37;;;;;;;;;;;;;;;21.53;31.04;97255.50;10403397;28;1957;-71
2022/01/28 20:54:38;;;;;;;;;;;;;;;21.56;30.66;97249.72;10416188;28;1471;-69
2022/01/28 20:59:38;;;;;;;;;;;;;;;21.57;30.92;97251.34;10411752;28;1244;-69
2022/01/28 21:04:39;;;;;;;;;;;;;;;21.56;30.59;97260.28;10397891;28;1477;-71
2022/01/28 21:09:39;;;;;;;;;;;;;;;21.53;30.95;97260.78;10419893;28;1887;-72
2022/01/28 21:14:40;;;;;;;;;;;;;;;21.55;30.71;97258.72;10411055;28;1360;-71
2022/01/28 21:19:40;;;;;;;;;;;;;;;21.54;30.60;97262.38;10416067;28;1371;-71
2022/01/28 21:24:41;;;;;;;;;;;;;;;21.55;30.76;97253.44;10398223;28;1389;-71
2022/01/28 21:29:41;;;;;;;;;;;;;;;21.56;30.50;97255.00;10411920;28;1898;-69
2022/01/28 21:34:41;;;;;;;;;;;;;;;21.55;30.55;97262.16;10414437;28;1393;-70
2022/01/28 21:39:43;;;;;;;;;;;;;;;21.54;29.91;97265.81;10439034;23;1774;-49
2022/01/28 21:44:43;;;;;;;;;;;;;;;21.63;30.86;97260.94;10422003;28;1531;-49
2022/01/28 21:49:43;;;;;;;;;;;;;;;21.58;29.90;97253.72;10423571;28;1914;-51
2022/01/28 21:54:44;;;;;;;;;;;;;;;21.55;29.61;97254.22;10431539;28;1448;-50
2022/01/28 21:59:45;;;;;;;;;;;;;;;21.54;29.80;97246.53;10425527;28;1358;-47
2022/01/28 22:04:48;;;;;;;;;;;;;;;21.53;29.25;97245.75;10427312;28;1384;-49
2022/01/28 22:09:48;;;;;;;;;;;;;;;21.53;30.12;97244.97;10421596;28;1910;-49
2022/01/28 22:14:49;;;;;;;;;;;;;;;21.52;29.95;97235.44;10424557;28;1608;-54
2022/01/28 22:19:49;;;;;;;;;;;;;;;21.57;30.58;97235.50;10419732;28;1803;-49
2022/01/28 22:24:49;;;;;;;;;;;;;;;21.57;30.31;97214.41;10420537;28;1884;-52
2022/01/28 22:29:50;;;;;;;;;;;;;;;21.55;30.33;97225.22;10428346;28;1906;-49
2022/01/28 22:34:50;;;;;;;;;;;;;;;21.53;30.14;97223.84;10421922;28;1956;-51
2022/01/28 22:39:51;;;;;;;;;;;;;;;21.54;30.07;97230.72;10421528;28;1806;-47
2022/01/28 22:44:51;;;;;;;;;;;;;;;21.51;30.21;97231.22;10422614;28;1827;-47
2022/01/28 22:49:52;;;;;;;;;;;;;;;21.46;30.25;97217.94;10422173;28;1981;-46
2022/01/28 22:54:53;;;;;;;;;;;;;;;21.48;29.86;97227.22;10424015;28;1815;-47
2022/01/28 22:59:53;;;;;;;;;;;;;;;21.47;29.82;97227.47;10427930;28;1843;-47
2022/01/28 23:04:54;;;;;;;;;;;;;;;21.47;30.09;97227.47;10423254;28;1802;-47
2022/01/28 23:09:54;;;;;;;;;;;;;;;21.44;29.76;97215.56;10421294;28;1909;-48
2022/01/28 23:14:55;;;;;;;;;;;;;;;21.42;29.76;97201.81;10423162;28;1966;-48
2022/01/28 23:19:55;;;;;;;;;;;;;;;21.44;29.81;97198.91;10423245;28;1845;-49
2022/01/28 23:24:56;;;;;;;;;;;;;;;21.43;29.76;97186.78;10426125;28;1819;-47
2022/01/28 23:29:56;;;;;;;;;;;;;;;21.43;29.69;97176.22;10424750;28;1914;-49
2022/01/28 23:34:57;;;;;;;;;;;;;;;21.42;29.36;97172.00;10421031;28;1976;-49
2022/01/28 23:39:57;;;;;;;;;;;;;;;21.40;29.60;97166.97;10423949;28;1894;-45
2022/01/28 23:44:57;;;;;;;;;;;;;;;21.40;29.30;97168.78;10424589;28;1846;-47
2022/01/28 23:49:58;;;;;;;;;;;;;;;21.41;29.35;97173.81;10425015;28;1934;-47
2022/01/28 23:54:58;;;;;;;;;;;;;;;21.39;29.22;97159.31;10420341;28;1823;-46
2022/01/28 23:59:59;;;;;;;;;;;;;;;21.41;28.90;97157.22;10422561;28;1992;-49
